N2088B KPWM-KBOS
Flight info
| Callsign | N2088B |
|---|---|
| Flight time | 0h 23m |
| Altitude | 22000 |
| Route | ENE OOSHN5 |
| Aircraft | C700/M-SBDGHM1RWXY/LB2 |
Departure
| Time | 2026-05-05 22:00 |
|---|---|
| Airport | Portland International Jetport (KPWM) |
Arrival
| Time | 2026-05-05 22:24 |
|---|---|
| Airport | Boston Logan International Airport (KBOS) |
| Time | Latitude | Longitude | Altitude | Speed | Heading |
|---|---|---|---|---|---|
| 2026-05-05 21:46 | 43.64200 | -70.30770 | 59 ft | 0 kts | 119° |
| 2026-05-05 21:54 | 43.64200 | -70.30762 | 62 ft | 2 kts | 86° |
| 2026-05-05 21:54 | 43.64213 | -70.30749 | 61 ft | 4 kts | 28° |
| 2026-05-05 21:54 | 43.64222 | -70.30743 | 56 ft | 7 kts | 29° |
| 2026-05-05 21:54 | 43.64303 | -70.30683 | 60 ft | 19 kts | 359° |
| 2026-05-05 21:55 | 43.64487 | -70.30690 | 56 ft | 29 kts | 358° |
| 2026-05-05 21:55 | 43.64696 | -70.30700 | 59 ft | 32 kts | 358° |
| 2026-05-05 21:55 | 43.64921 | -70.30709 | 62 ft | 33 kts | 358° |
| 2026-05-05 21:55 | 43.65153 | -70.30730 | 58 ft | 29 kts | 341° |
| 2026-05-05 21:56 | 43.65350 | -70.30827 | 52 ft | 15 kts | 340° |
| 2026-05-05 21:56 | 43.65355 | -70.30830 | 53 ft | 0 kts | 340° |
| 2026-05-05 21:59 | 43.65356 | -70.30830 | 53 ft | 3 kts | 340° |
| 2026-05-05 22:00 | 43.65426 | -70.30782 | 49 ft | 18 kts | 62° |
| 2026-05-05 22:00 | 43.65378 | -70.30705 | 53 ft | 25 kts | 163° |
| 2026-05-05 22:00 | 43.64901 | -70.30504 | 61 ft | 117 kts | 169° |
| 2026-05-05 22:00 | 43.63993 | -70.30007 | 795 ft | 149 kts | 164° |
| 2026-05-05 22:01 | 43.62986 | -70.29417 | 1987 ft | 169 kts | 165° |
| 2026-05-05 22:01 | 43.61826 | -70.28695 | 3098 ft | 196 kts | 165° |
| 2026-05-05 22:01 | 43.60448 | -70.28393 | 4211 ft | 211 kts | 188° |
| 2026-05-05 22:01 | 43.58897 | -70.28496 | 5448 ft | 237 kts | 190° |
| 2026-05-05 22:02 | 43.57193 | -70.28538 | 6967 ft | 249 kts | 187° |
| 2026-05-05 22:02 | 43.55424 | -70.28506 | 8504 ft | 261 kts | 186° |
| 2026-05-05 22:02 | 43.53570 | -70.28411 | 10005 ft | 271 kts | 185° |
| 2026-05-05 22:02 | 43.51639 | -70.28287 | 11177 ft | 295 kts | 184° |
| 2026-05-05 22:03 | 43.49490 | -70.28165 | 12208 ft | 323 kts | 184° |
| 2026-05-05 22:03 | 43.47147 | -70.28033 | 13199 ft | 351 kts | 183° |
| 2026-05-05 22:03 | 43.44610 | -70.27887 | 14066 ft | 377 kts | 182° |
| 2026-05-05 22:03 | 43.41971 | -70.27723 | 15509 ft | 381 kts | 182° |
| 2026-05-05 22:04 | 43.39288 | -70.27567 | 16871 ft | 390 kts | 182° |
| 2026-05-05 22:04 | 43.36554 | -70.27418 | 18219 ft | 397 kts | 182° |
| 2026-05-05 22:04 | 43.33764 | -70.27261 | 19296 ft | 405 kts | 182° |
| 2026-05-05 22:04 | 43.30920 | -70.27097 | 20277 ft | 413 kts | 181° |
| 2026-05-05 22:05 | 43.28027 | -70.26931 | 21211 ft | 420 kts | 182° |
| 2026-05-05 22:05 | 43.25062 | -70.26766 | 21787 ft | 436 kts | 181° |
| 2026-05-05 22:05 | 43.22003 | -70.26595 | 21789 ft | 438 kts | 181° |
| 2026-05-05 22:05 | 43.18995 | -70.26413 | 21788 ft | 429 kts | 181° |
| 2026-05-05 22:06 | 43.16023 | -70.26244 | 21790 ft | 427 kts | 182° |
| 2026-05-05 22:06 | 43.13043 | -70.26084 | 21786 ft | 429 kts | 182° |
| 2026-05-05 22:06 | 43.10069 | -70.25921 | 21294 ft | 435 kts | 181° |
| 2026-05-05 22:06 | 43.07067 | -70.25744 | 20738 ft | 426 kts | 181° |
| 2026-05-05 22:07 | 43.04132 | -70.25572 | 20248 ft | 416 kts | 181° |
| 2026-05-05 22:07 | 43.01258 | -70.25414 | 19753 ft | 411 kts | 182° |
| 2026-05-05 22:07 | 42.98407 | -70.25260 | 19230 ft | 409 kts | 181° |
| 2026-05-05 22:07 | 42.95565 | -70.25099 | 18701 ft | 408 kts | 181° |
| 2026-05-05 22:08 | 42.92738 | -70.24938 | 18172 ft | 404 kts | 181° |
| 2026-05-05 22:08 | 42.89982 | -70.24782 | 17645 ft | 396 kts | 181° |
| 2026-05-05 22:08 | 42.87285 | -70.24627 | 17237 ft | 377 kts | 182° |
| 2026-05-05 22:08 | 42.84763 | -70.24482 | 17071 ft | 351 kts | 182° |
| 2026-05-05 22:09 | 42.82394 | -70.24350 | 16752 ft | 331 kts | 182° |
| 2026-05-05 22:09 | 42.80152 | -70.24228 | 16431 ft | 315 kts | 183° |
| 2026-05-05 22:09 | 42.78011 | -70.24111 | 16097 ft | 303 kts | 183° |
| 2026-05-05 22:09 | 42.75931 | -70.24065 | 15718 ft | 294 kts | 190° |
| 2026-05-05 22:10 | 42.74612 | -70.24544 | 15118 ft | 291 kts | 210° |
| 2026-05-05 22:10 | 42.73168 | -70.26351 | 14522 ft | 281 kts | 238° |
| 2026-05-05 22:10 | 42.72226 | -70.28659 | 13948 ft | 278 kts | 243° |
| 2026-05-05 22:10 | 42.71328 | -70.30944 | 13354 ft | 276 kts | 243° |
| 2026-05-05 22:11 | 42.70421 | -70.33229 | 12761 ft | 273 kts | 242° |
| 2026-05-05 22:11 | 42.69525 | -70.35461 | 12374 ft | 265 kts | 243° |
| 2026-05-05 22:11 | 42.68649 | -70.37643 | 12029 ft | 261 kts | 243° |
| 2026-05-05 22:11 | 42.67777 | -70.39820 | 11682 ft | 263 kts | 243° |
| 2026-05-05 22:12 | 42.66901 | -70.42006 | 11343 ft | 264 kts | 243° |
| 2026-05-05 22:12 | 42.66019 | -70.44202 | 10995 ft | 265 kts | 243° |
| 2026-05-05 22:12 | 42.65138 | -70.46394 | 10638 ft | 263 kts | 243° |
| 2026-05-05 22:12 | 42.64265 | -70.48564 | 10277 ft | 259 kts | 243° |
| 2026-05-05 22:13 | 42.63406 | -70.50698 | 9937 ft | 256 kts | 243° |
| 2026-05-05 22:13 | 42.62554 | -70.52813 | 9587 ft | 253 kts | 243° |
| 2026-05-05 22:13 | 42.61715 | -70.54897 | 9193 ft | 249 kts | 243° |
| 2026-05-05 22:13 | 42.60889 | -70.56945 | 8618 ft | 246 kts | 243° |
| 2026-05-05 22:14 | 42.60071 | -70.58972 | 8072 ft | 244 kts | 242° |
| 2026-05-05 22:14 | 42.59260 | -70.60981 | 7543 ft | 241 kts | 242° |
| 2026-05-05 22:14 | 42.58459 | -70.62961 | 7055 ft | 238 kts | 242° |
| 2026-05-05 22:14 | 42.57684 | -70.64879 | 6694 ft | 231 kts | 242° |
| 2026-05-05 22:15 | 42.57018 | -70.66901 | 6041 ft | 236 kts | 253° |
| 2026-05-05 22:15 | 42.56802 | -70.69093 | 5603 ft | 234 kts | 266° |
| 2026-05-05 22:15 | 42.57039 | -70.71196 | 5594 ft | 215 kts | 278° |
| 2026-05-05 22:15 | 42.57606 | -70.72966 | 5546 ft | 201 kts | 289° |
| 2026-05-05 22:16 | 42.58467 | -70.74506 | 5049 ft | 211 kts | 303° |
| 2026-05-05 22:16 | 42.59113 | -70.76155 | 4525 ft | 191 kts | 268° |
| 2026-05-05 22:16 | 42.58900 | -70.77858 | 4116 ft | 182 kts | 252° |
| 2026-05-05 22:16 | 42.58674 | -70.79558 | 3672 ft | 184 kts | 258° |
| 2026-05-05 22:17 | 42.58619 | -70.81266 | 3362 ft | 179 kts | 261° |
| 2026-05-05 22:17 | 42.58607 | -70.82964 | 2997 ft | 179 kts | 262° |
| 2026-05-05 22:17 | 42.58583 | -70.84577 | 2981 ft | 165 kts | 257° |
| 2026-05-05 22:17 | 42.58362 | -70.86110 | 2988 ft | 168 kts | 249° |
| 2026-05-05 22:18 | 42.57925 | -70.87619 | 2991 ft | 174 kts | 241° |
| 2026-05-05 22:18 | 42.57263 | -70.89041 | 2987 ft | 183 kts | 232° |
| 2026-05-05 22:18 | 42.56379 | -70.90292 | 2985 ft | 184 kts | 221° |
| 2026-05-05 22:18 | 42.55334 | -70.91275 | 2985 ft | 182 kts | 213° |
| 2026-05-05 22:19 | 42.54170 | -70.91923 | 3006 ft | 184 kts | 205° |
| 2026-05-05 22:19 | 42.52953 | -70.92532 | 3004 ft | 184 kts | 206° |
| 2026-05-05 22:19 | 42.51833 | -70.93092 | 2928 ft | 160 kts | 205° |
| 2026-05-05 22:19 | 42.50820 | -70.93528 | 2726 ft | 146 kts | 205° |
| 2026-05-05 22:20 | 42.49874 | -70.93994 | 2536 ft | 145 kts | 205° |
| 2026-05-05 22:20 | 42.48919 | -70.94475 | 2362 ft | 147 kts | 205° |
| 2026-05-05 22:20 | 42.47953 | -70.94958 | 2180 ft | 148 kts | 203° |
| 2026-05-05 22:20 | 42.46985 | -70.95420 | 1997 ft | 148 kts | 202° |
| 2026-05-05 22:21 | 42.46022 | -70.95888 | 1806 ft | 145 kts | 202° |
| 2026-05-05 22:21 | 42.45160 | -70.96306 | 1657 ft | 126 kts | 200° |
| 2026-05-05 22:21 | 42.44374 | -70.96686 | 1463 ft | 116 kts | 201° |
| 2026-05-05 22:21 | 42.43613 | -70.97057 | 1308 ft | 115 kts | 202° |
| 2026-05-05 22:22 | 42.42842 | -70.97428 | 1163 ft | 122 kts | 200° |
| 2026-05-05 22:22 | 42.42050 | -70.97818 | 985 ft | 122 kts | 201° |
| 2026-05-05 22:22 | 42.41258 | -70.98201 | 841 ft | 122 kts | 200° |
| 2026-05-05 22:22 | 42.40489 | -70.98576 | 694 ft | 111 kts | 198° |
| 2026-05-05 22:23 | 42.39745 | -70.98937 | 551 ft | 117 kts | 197° |
| 2026-05-05 22:23 | 42.39002 | -70.99274 | 393 ft | 111 kts | 201° |
| 2026-05-05 22:23 | 42.38259 | -70.99681 | 256 ft | 115 kts | 201° |
| 2026-05-05 22:23 | 42.37508 | -71.00013 | 74 ft | 107 kts | 202° |
| 2026-05-05 22:24 | 42.36924 | -71.00300 | 18 ft | 63 kts | 199° |
| 2026-05-05 22:24 | 42.36741 | -71.00392 | 19 ft | 25 kts | 200° |
| 2026-05-05 22:24 | 42.36575 | -71.00474 | 19 ft | 24 kts | 192° |
| 2026-05-05 22:24 | 42.36508 | -71.00555 | 20 ft | 12 kts | 309° |
| 2026-05-05 22:25 | 42.36539 | -71.00600 | 20 ft | 1 kts | 313° |
| 2026-05-05 22:25 | 42.36613 | -71.00697 | 21 ft | 24 kts | 316° |
| 2026-05-05 22:25 | 42.36735 | -71.00859 | 19 ft | 12 kts | 316° |
| 2026-05-05 22:25 | 42.36761 | -71.00893 | 19 ft | 26 kts | 316° |
| 2026-05-05 22:26 | 42.36871 | -71.01043 | 18 ft | 0 kts | 315° |
| 2026-05-05 22:26 | 42.36943 | -71.01142 | 20 ft | 28 kts | 314° |
| 2026-05-05 22:26 | 42.37145 | -71.01412 | 19 ft | 44 kts | 315° |
| 2026-05-05 22:27 | 42.37356 | -71.01692 | 21 ft | 40 kts | 314° |
| 2026-05-05 22:27 | 42.37370 | -71.01842 | 19 ft | 17 kts | 222° |
| 2026-05-05 22:27 | 42.37424 | -71.01989 | 18 ft | 23 kts | 315° |
| 2026-05-05 22:27 | 42.37547 | -71.02152 | 18 ft | 26 kts | 319° |
| 2026-05-05 22:28 | 42.37538 | -71.02246 | 18 ft | 13 kts | 153° |
| 2026-05-05 22:28 | 42.37525 | -71.02228 | 18 ft | 0 kts | 127° |